sensor_id;sensor_type;location;lat;lon;timestamp;P1;durP1;ratioP1;P2;durP2;ratioP2
62929;SDS011;49036;42.782;23.108;2022-10-31T00:00:46;7.93;;;4.85;;
62929;SDS011;49036;42.782;23.108;2022-10-31T00:03:12;9.55;;;4.60;;
62929;SDS011;49036;42.782;23.108;2022-10-31T00:08:10;9.23;;;5.03;;
62929;SDS011;49036;42.782;23.108;2022-10-31T00:10:39;7.22;;;4.68;;
62929;SDS011;49036;42.782;23.108;2022-10-31T00:13:05;12.25;;;4.35;;
62929;SDS011;49036;42.782;23.108;2022-10-31T00:15:35;9.25;;;5.00;;
62929;SDS011;49036;42.782;23.108;2022-10-31T00:18:02;9.27;;;5.07;;
62929;SDS011;49036;42.782;23.108;2022-10-31T00:20:28;9.85;;;4.95;;
62929;SDS011;49036;42.782;23.108;2022-10-31T00:22:56;10.15;;;5.10;;
62929;SDS011;49036;42.782;23.108;2022-10-31T00:25:23;13.30;;;5.63;;
62929;SDS011;49036;42.782;23.108;2022-10-31T00:27:48;10.25;;;5.05;;
62929;SDS011;49036;42.782;23.108;2022-10-31T00:30:14;12.95;;;4.90;;
62929;SDS011;49036;42.782;23.108;2022-10-31T00:35:05;7.18;;;4.38;;
62929;SDS011;49036;42.782;23.108;2022-10-31T00:37:30;8.63;;;5.25;;
62929;SDS011;49036;42.782;23.108;2022-10-31T00:39:56;8.82;;;5.38;;
62929;SDS011;49036;42.782;23.108;2022-10-31T00:44:47;11.32;;;5.32;;
62929;SDS011;49036;42.782;23.108;2022-10-31T00:49:37;12.98;;;5.38;;
62929;SDS011;49036;42.782;23.108;2022-10-31T00:54:28;9.57;;;5.07;;
62929;SDS011;49036;42.782;23.108;2022-10-31T00:56:56;7.22;;;4.72;;
62929;SDS011;49036;42.782;23.108;2022-10-31T00:59:22;6.90;;;4.60;;
62929;SDS011;49036;42.782;23.108;2022-10-31T01:04:13;10.00;;;5.22;;
62929;SDS011;49036;42.782;23.108;2022-10-31T01:09:03;10.30;;;5.55;;
62929;SDS011;49036;42.782;23.108;2022-10-31T01:13:54;8.20;;;4.18;;
62929;SDS011;49036;42.782;23.108;2022-10-31T01:18:47;10.00;;;5.25;;
62929;SDS011;49036;42.782;23.108;2022-10-31T01:23:39;11.20;;;5.88;;
62929;SDS011;49036;42.782;23.108;2022-10-31T01:28:39;8.35;;;5.95;;
62929;SDS011;49036;42.782;23.108;2022-10-31T01:31:09;8.50;;;5.38;;
62929;SDS011;49036;42.782;23.108;2022-10-31T01:36:01;8.77;;;4.50;;
62929;SDS011;49036;42.782;23.108;2022-10-31T01:38:36;10.23;;;5.25;;
62929;SDS011;49036;42.782;23.108;2022-10-31T01:43:41;12.15;;;5.60;;
62929;SDS011;49036;42.782;23.108;2022-10-31T01:46:07;9.65;;;5.63;;
62929;SDS011;49036;42.782;23.108;2022-10-31T01:50:58;9.18;;;4.93;;
62929;SDS011;49036;42.782;23.108;2022-10-31T01:53:24;11.27;;;5.93;;
62929;SDS011;49036;42.782;23.108;2022-10-31T01:58:18;8.30;;;5.63;;
62929;SDS011;49036;42.782;23.108;2022-10-31T02:00:46;9.00;;;5.45;;
62929;SDS011;49036;42.782;23.108;2022-10-31T02:03:16;13.52;;;6.45;;
62929;SDS011;49036;42.782;23.108;2022-10-31T02:05:43;6.47;;;4.57;;
62929;SDS011;49036;42.782;23.108;2022-10-31T02:10:43;13.15;;;6.85;;
62929;SDS011;49036;42.782;23.108;2022-10-31T02:15:36;8.25;;;4.85;;
62929;SDS011;49036;42.782;23.108;2022-10-31T02:18:03;16.48;;;5.75;;
62929;SDS011;49036;42.782;23.108;2022-10-31T02:20:36;10.85;;;5.80;;
62929;SDS011;49036;42.782;23.108;2022-10-31T02:23:24;11.13;;;4.43;;
62929;SDS011;49036;42.782;23.108;2022-10-31T02:26:12;10.48;;;4.88;;
62929;SDS011;49036;42.782;23.108;2022-10-31T02:31:35;9.63;;;5.13;;
62929;SDS011;49036;42.782;23.108;2022-10-31T02:36:51;9.48;;;5.63;;
62929;SDS011;49036;42.782;23.108;2022-10-31T02:39:29;12.77;;;5.38;;
62929;SDS011;49036;42.782;23.108;2022-10-31T02:42:17;12.73;;;5.45;;
62929;SDS011;49036;42.782;23.108;2022-10-31T02:44:55;9.50;;;5.25;;
62929;SDS011;49036;42.782;23.108;2022-10-31T02:47:29;15.13;;;7.60;;
62929;SDS011;49036;42.782;23.108;2022-10-31T02:52:33;7.32;;;5.18;;
62929;SDS011;49036;42.782;23.108;2022-10-31T02:55:41;13.60;;;6.18;;
62929;SDS011;49036;42.782;23.108;2022-10-31T02:58:02;7.47;;;5.03;;
62929;SDS011;49036;42.782;23.108;2022-10-31T03:00:33;9.70;;;5.78;;
62929;SDS011;49036;42.782;23.108;2022-10-31T03:03:24;8.73;;;5.70;;
62929;SDS011;49036;42.782;23.108;2022-10-31T03:10:45;11.50;;;5.23;;
62929;SDS011;49036;42.782;23.108;2022-10-31T03:13:29;13.13;;;6.30;;
62929;SDS011;49036;42.782;23.108;2022-10-31T03:21:33;13.15;;;7.85;;
62929;SDS011;49036;42.782;23.108;2022-10-31T03:24:04;12.50;;;7.57;;
62929;SDS011;49036;42.782;23.108;2022-10-31T03:26:34;11.27;;;7.53;;
62929;SDS011;49036;42.782;23.108;2022-10-31T03:29:02;13.00;;;7.05;;
62929;SDS011;49036;42.782;23.108;2022-10-31T03:31:42;10.85;;;6.97;;
62929;SDS011;49036;42.782;23.108;2022-10-31T03:34:13;13.10;;;7.45;;
62929;SDS011;49036;42.782;23.108;2022-10-31T03:36:40;13.70;;;7.95;;
62929;SDS011;49036;42.782;23.108;2022-10-31T03:39:07;14.95;;;8.68;;
62929;SDS011;49036;42.782;23.108;2022-10-31T03:41:38;15.60;;;7.53;;
62929;SDS011;49036;42.782;23.108;2022-10-31T03:44:09;11.88;;;7.72;;
62929;SDS011;49036;42.782;23.108;2022-10-31T03:46:39;17.52;;;8.23;;
62929;SDS011;49036;42.782;23.108;2022-10-31T03:49:05;26.75;;;8.32;;
62929;SDS011;49036;42.782;23.108;2022-10-31T03:56:50;16.23;;;9.30;;
62929;SDS011;49036;42.782;23.108;2022-10-31T03:59:22;16.08;;;9.30;;
62929;SDS011;49036;42.782;23.108;2022-10-31T04:02:01;16.88;;;10.02;;
62929;SDS011;49036;42.782;23.108;2022-10-31T04:04:31;9.52;;;7.28;;
62929;SDS011;49036;42.782;23.108;2022-10-31T04:06:58;20.17;;;10.07;;
62929;SDS011;49036;42.782;23.108;2022-10-31T04:09:26;20.10;;;8.98;;
62929;SDS011;49036;42.782;23.108;2022-10-31T04:11:55;15.38;;;9.88;;
62929;SDS011;49036;42.782;23.108;2022-10-31T04:14:23;20.08;;;10.95;;
62929;SDS011;49036;42.782;23.108;2022-10-31T04:16:51;17.73;;;9.18;;
62929;SDS011;49036;42.782;23.108;2022-10-31T04:21:42;16.17;;;10.27;;
62929;SDS011;49036;42.782;23.108;2022-10-31T04:26:34;23.67;;;12.48;;
62929;SDS011;49036;42.782;23.108;2022-10-31T04:31:25;18.48;;;10.52;;
62929;SDS011;49036;42.782;23.108;2022-10-31T04:36:15;23.05;;;11.40;;
62929;SDS011;49036;42.782;23.108;2022-10-31T04:41:06;20.20;;;11.65;;
62929;SDS011;49036;42.782;23.108;2022-10-31T04:45:57;17.92;;;10.85;;
62929;SDS011;49036;42.782;23.108;2022-10-31T04:50:48;19.02;;;10.38;;
62929;SDS011;49036;42.782;23.108;2022-10-31T04:55:39;18.38;;;12.05;;
62929;SDS011;49036;42.782;23.108;2022-10-31T05:00:29;19.40;;;12.20;;
62929;SDS011;49036;42.782;23.108;2022-10-31T05:05:25;20.50;;;12.60;;
62929;SDS011;49036;42.782;23.108;2022-10-31T05:07:55;22.05;;;12.65;;
62929;SDS011;49036;42.782;23.108;2022-10-31T05:12:54;16.60;;;11.65;;
62929;SDS011;49036;42.782;23.108;2022-10-31T05:15:22;19.65;;;12.30;;
62929;SDS011;49036;42.782;23.108;2022-10-31T05:17:49;21.85;;;12.30;;
62929;SDS011;49036;42.782;23.108;2022-10-31T05:22:44;20.83;;;14.10;;
62929;SDS011;49036;42.782;23.108;2022-10-31T05:25:11;29.75;;;13.95;;
62929;SDS011;49036;42.782;23.108;2022-10-31T05:30:06;24.40;;;12.27;;
62929;SDS011;49036;42.782;23.108;2022-10-31T05:32:38;26.05;;;14.68;;
62929;SDS011;49036;42.782;23.108;2022-10-31T05:35:06;25.17;;;14.48;;
62929;SDS011;49036;42.782;23.108;2022-10-31T05:37:36;21.23;;;13.65;;
62929;SDS011;49036;42.782;23.108;2022-10-31T05:40:02;20.80;;;13.15;;
62929;SDS011;49036;42.782;23.108;2022-10-31T05:42:28;21.60;;;13.82;;
62929;SDS011;49036;42.782;23.108;2022-10-31T05:47:19;27.37;;;13.73;;
62929;SDS011;49036;42.782;23.108;2022-10-31T05:52:10;20.23;;;13.23;;
62929;SDS011;49036;42.782;23.108;2022-10-31T05:57:00;26.05;;;13.57;;
62929;SDS011;49036;42.782;23.108;2022-10-31T06:01:51;19.87;;;12.73;;
62929;SDS011;49036;42.782;23.108;2022-10-31T06:06:42;18.40;;;12.50;;
62929;SDS011;49036;42.782;23.108;2022-10-31T06:11:33;22.17;;;12.60;;
62929;SDS011;49036;42.782;23.108;2022-10-31T06:16:24;18.38;;;12.13;;
62929;SDS011;49036;42.782;23.108;2022-10-31T06:21:14;18.58;;;11.90;;
62929;SDS011;49036;42.782;23.108;2022-10-31T06:23:40;25.92;;;13.27;;
62929;SDS011;49036;42.782;23.108;2022-10-31T06:26:05;20.55;;;12.02;;
62929;SDS011;49036;42.782;23.108;2022-10-31T06:28:31;20.23;;;12.13;;
62929;SDS011;49036;42.782;23.108;2022-10-31T06:30:56;21.48;;;13.38;;
62929;SDS011;49036;42.782;23.108;2022-10-31T06:33:22;16.23;;;11.60;;
62929;SDS011;49036;42.782;23.108;2022-10-31T06:35:47;20.02;;;12.98;;
62929;SDS011;49036;42.782;23.108;2022-10-31T06:40:39;31.15;;;12.23;;
62929;SDS011;49036;42.782;23.108;2022-10-31T06:43:04;21.17;;;11.75;;
62929;SDS011;49036;42.782;23.108;2022-10-31T06:45:30;19.80;;;11.85;;
62929;SDS011;49036;42.782;23.108;2022-10-31T06:47:55;19.20;;;11.77;;
62929;SDS011;49036;42.782;23.108;2022-10-31T06:50:22;19.67;;;11.95;;
62929;SDS011;49036;42.782;23.108;2022-10-31T06:52:51;16.60;;;12.00;;
62929;SDS011;49036;42.782;23.108;2022-10-31T06:55:18;26.00;;;12.88;;
62929;SDS011;49036;42.782;23.108;2022-10-31T06:57:49;19.63;;;12.57;;
62929;SDS011;49036;42.782;23.108;2022-10-31T07:00:18;24.17;;;11.93;;
62929;SDS011;49036;42.782;23.108;2022-10-31T07:02:52;16.50;;;11.40;;
62929;SDS011;49036;42.782;23.108;2022-10-31T07:05:25;20.25;;;11.15;;
62929;SDS011;49036;42.782;23.108;2022-10-31T07:07:58;14.43;;;10.00;;
62929;SDS011;49036;42.782;23.108;2022-10-31T07:10:26;17.70;;;10.55;;
62929;SDS011;49036;42.782;23.108;2022-10-31T07:13:00;16.65;;;11.40;;
62929;SDS011;49036;42.782;23.108;2022-10-31T07:15:28;23.00;;;12.10;;
62929;SDS011;49036;42.782;23.108;2022-10-31T07:17:58;13.48;;;9.70;;
62929;SDS011;49036;42.782;23.108;2022-10-31T07:20:25;16.33;;;9.60;;
62929;SDS011;49036;42.782;23.108;2022-10-31T07:22:51;18.83;;;10.38;;
62929;SDS011;49036;42.782;23.108;2022-10-31T07:25:16;14.77;;;9.57;;
62929;SDS011;49036;42.782;23.108;2022-10-31T07:27:42;17.63;;;10.45;;
62929;SDS011;49036;42.782;23.108;2022-10-31T07:30:09;15.55;;;10.82;;
62929;SDS011;49036;42.782;23.108;2022-10-31T07:32:39;14.65;;;9.32;;
62929;SDS011;49036;42.782;23.108;2022-10-31T07:35:05;15.75;;;8.95;;
62929;SDS011;49036;42.782;23.108;2022-10-31T07:37:32;14.90;;;8.60;;
62929;SDS011;49036;42.782;23.108;2022-10-31T07:39:58;16.63;;;10.07;;
62929;SDS011;49036;42.782;23.108;2022-10-31T07:42:23;17.10;;;8.85;;
62929;SDS011;49036;42.782;23.108;2022-10-31T07:44:49;18.25;;;9.85;;
62929;SDS011;49036;42.782;23.108;2022-10-31T07:47:14;18.58;;;9.43;;
62929;SDS011;49036;42.782;23.108;2022-10-31T07:49:40;14.70;;;8.00;;
62929;SDS011;49036;42.782;23.108;2022-10-31T07:52:05;15.27;;;10.45;;
62929;SDS011;49036;42.782;23.108;2022-10-31T07:54:30;15.02;;;8.98;;
62929;SDS011;49036;42.782;23.108;2022-10-31T07:56:56;18.92;;;8.07;;
62929;SDS011;49036;42.782;23.108;2022-10-31T07:59:21;14.50;;;7.93;;
62929;SDS011;49036;42.782;23.108;2022-10-31T08:01:47;12.95;;;8.60;;
62929;SDS011;49036;42.782;23.108;2022-10-31T08:04:12;13.20;;;9.05;;
62929;SDS011;49036;42.782;23.108;2022-10-31T08:06:38;13.48;;;7.65;;
62929;SDS011;49036;42.782;23.108;2022-10-31T08:09:03;14.52;;;8.00;;
62929;SDS011;49036;42.782;23.108;2022-10-31T08:11:29;12.70;;;7.47;;
62929;SDS011;49036;42.782;23.108;2022-10-31T08:13:54;11.45;;;7.35;;
62929;SDS011;49036;42.782;23.108;2022-10-31T08:16:20;14.27;;;7.78;;
62929;SDS011;49036;42.782;23.108;2022-10-31T08:18:45;11.40;;;7.65;;
62929;SDS011;49036;42.782;23.108;2022-10-31T08:21:11;14.77;;;8.63;;
62929;SDS011;49036;42.782;23.108;2022-10-31T08:23:36;14.98;;;7.55;;
62929;SDS011;49036;42.782;23.108;2022-10-31T08:26:02;10.85;;;7.70;;
62929;SDS011;49036;42.782;23.108;2022-10-31T08:28:27;9.55;;;7.13;;
62929;SDS011;49036;42.782;23.108;2022-10-31T08:30:53;12.35;;;7.05;;
62929;SDS011;49036;42.782;23.108;2022-10-31T08:33:18;12.20;;;6.68;;
62929;SDS011;49036;42.782;23.108;2022-10-31T08:35:44;11.35;;;7.70;;
62929;SDS011;49036;42.782;23.108;2022-10-31T08:38:10;17.83;;;6.38;;
62929;SDS011;49036;42.782;23.108;2022-10-31T08:40:37;11.43;;;6.85;;
62929;SDS011;49036;42.782;23.108;2022-10-31T08:43:03;10.45;;;6.25;;
62929;SDS011;49036;42.782;23.108;2022-10-31T08:45:31;14.57;;;7.07;;
62929;SDS011;49036;42.782;23.108;2022-10-31T08:47:58;8.35;;;6.47;;
62929;SDS011;49036;42.782;23.108;2022-10-31T08:50:25;12.80;;;7.00;;
62929;SDS011;49036;42.782;23.108;2022-10-31T08:52:52;9.65;;;5.60;;
62929;SDS011;49036;42.782;23.108;2022-10-31T08:55:17;14.73;;;6.90;;
62929;SDS011;49036;42.782;23.108;2022-10-31T08:57:43;7.63;;;6.32;;
62929;SDS011;49036;42.782;23.108;2022-10-31T09:00:08;9.20;;;6.30;;
62929;SDS011;49036;42.782;23.108;2022-10-31T09:02:34;11.52;;;6.10;;
62929;SDS011;49036;42.782;23.108;2022-10-31T09:05:00;8.30;;;6.38;;
62929;SDS011;49036;42.782;23.108;2022-10-31T09:07:25;9.68;;;6.05;;
62929;SDS011;49036;42.782;23.108;2022-10-31T09:09:51;8.27;;;5.90;;
62929;SDS011;49036;42.782;23.108;2022-10-31T09:12:16;10.90;;;5.90;;
62929;SDS011;49036;42.782;23.108;2022-10-31T09:14:42;11.50;;;6.45;;
62929;SDS011;49036;42.782;23.108;2022-10-31T09:17:07;10.02;;;5.47;;
62929;SDS011;49036;42.782;23.108;2022-10-31T09:19:33;8.88;;;5.97;;
62929;SDS011;49036;42.782;23.108;2022-10-31T09:21:58;11.68;;;6.00;;
62929;SDS011;49036;42.782;23.108;2022-10-31T09:24:23;7.07;;;5.63;;
62929;SDS011;49036;42.782;23.108;2022-10-31T09:26:49;12.40;;;6.75;;
62929;SDS011;49036;42.782;23.108;2022-10-31T09:29:14;10.27;;;6.75;;
62929;SDS011;49036;42.782;23.108;2022-10-31T09:31:40;12.00;;;6.35;;
62929;SDS011;49036;42.782;23.108;2022-10-31T09:34:05;10.93;;;4.75;;
62929;SDS011;49036;42.782;23.108;2022-10-31T09:37:13;8.38;;;5.68;;
62929;SDS011;49036;42.782;23.108;2022-10-31T09:39:39;8.60;;;5.35;;
62929;SDS011;49036;42.782;23.108;2022-10-31T09:44:49;12.93;;;5.75;;
62929;SDS011;49036;42.782;23.108;2022-10-31T09:52:29;10.55;;;5.45;;
62929;SDS011;49036;42.782;23.108;2022-10-31T09:55:19;9.70;;;5.22;;
62929;SDS011;49036;42.782;23.108;2022-10-31T09:57:45;8.95;;;5.57;;
62929;SDS011;49036;42.782;23.108;2022-10-31T10:00:17;11.68;;;5.68;;
62929;SDS011;49036;42.782;23.108;2022-10-31T10:02:46;9.63;;;4.55;;
62929;SDS011;49036;42.782;23.108;2022-10-31T10:05:18;11.10;;;5.03;;
62929;SDS011;49036;42.782;23.108;2022-10-31T10:08:02;8.65;;;4.78;;
62929;SDS011;49036;42.782;23.108;2022-10-31T10:18:48;9.32;;;5.32;;
62929;SDS011;49036;42.782;23.108;2022-10-31T10:30:01;9.95;;;4.60;;
62929;SDS011;49036;42.782;23.108;2022-10-31T10:32:30;8.00;;;4.63;;
62929;SDS011;49036;42.782;23.108;2022-10-31T10:35:24;6.40;;;3.90;;
62929;SDS011;49036;42.782;23.108;2022-10-31T10:37:50;8.32;;;4.60;;
62929;SDS011;49036;42.782;23.108;2022-10-31T10:40:22;8.45;;;4.18;;
62929;SDS011;49036;42.782;23.108;2022-10-31T10:43:01;9.35;;;4.45;;
62929;SDS011;49036;42.782;23.108;2022-10-31T10:49:00;10.23;;;4.85;;
62929;SDS011;49036;42.782;23.108;2022-10-31T10:56:24;11.20;;;5.38;;
62929;SDS011;49036;42.782;23.108;2022-10-31T10:58:55;9.10;;;5.65;;
62929;SDS011;49036;42.782;23.108;2022-10-31T11:01:21;17.02;;;6.07;;
62929;SDS011;49036;42.782;23.108;2022-10-31T11:04:00;10.40;;;4.78;;
62929;SDS011;49036;42.782;23.108;2022-10-31T11:07:54;8.75;;;4.18;;
62929;SDS011;49036;42.782;23.108;2022-10-31T11:10:20;13.50;;;4.03;;
62929;SDS011;49036;42.782;23.108;2022-10-31T11:12:57;8.50;;;3.75;;
62929;SDS011;49036;42.782;23.108;2022-10-31T11:15:53;9.63;;;3.90;;
62929;SDS011;49036;42.782;23.108;2022-10-31T11:18:23;9.57;;;3.40;;
62929;SDS011;49036;42.782;23.108;2022-10-31T11:20:52;6.05;;;3.78;;
62929;SDS011;49036;42.782;23.108;2022-10-31T11:23:20;10.80;;;3.75;;
62929;SDS011;49036;42.782;23.108;2022-10-31T11:25:51;9.60;;;4.05;;
62929;SDS011;49036;42.782;23.108;2022-10-31T11:28:20;9.13;;;3.55;;
62929;SDS011;49036;42.782;23.108;2022-10-31T11:31:14;8.38;;;3.25;;
62929;SDS011;49036;42.782;23.108;2022-10-31T11:36:21;13.68;;;4.13;;
62929;SDS011;49036;42.782;23.108;2022-10-31T11:38:49;13.38;;;4.18;;
62929;SDS011;49036;42.782;23.108;2022-10-31T11:41:16;5.68;;;3.58;;
62929;SDS011;49036;42.782;23.108;2022-10-31T11:43:50;5.57;;;2.78;;
62929;SDS011;49036;42.782;23.108;2022-10-31T11:46:24;10.55;;;3.83;;
62929;SDS011;49036;42.782;23.108;2022-10-31T11:49:34;8.80;;;3.42;;
62929;SDS011;49036;42.782;23.108;2022-10-31T11:51:57;7.10;;;2.97;;
62929;SDS011;49036;42.782;23.108;2022-10-31T11:54:30;6.18;;;3.25;;
62929;SDS011;49036;42.782;23.108;2022-10-31T11:57:20;13.52;;;3.58;;
62929;SDS011;49036;42.782;23.108;2022-10-31T11:59:52;12.30;;;3.35;;
62929;SDS011;49036;42.782;23.108;2022-10-31T12:02:19;10.50;;;3.55;;
62929;SDS011;49036;42.782;23.108;2022-10-31T12:04:47;6.95;;;3.05;;
62929;SDS011;49036;42.782;23.108;2022-10-31T12:08:59;12.70;;;3.70;;
62929;SDS011;49036;42.782;23.108;2022-10-31T12:19:57;4.72;;;2.95;;
62929;SDS011;49036;42.782;23.108;2022-10-31T12:33:28;6.72;;;2.53;;
62929;SDS011;49036;42.782;23.108;2022-10-31T12:46:39;10.63;;;3.05;;
62929;SDS011;49036;42.782;23.108;2022-10-31T12:57:13;6.68;;;3.15;;
62929;SDS011;49036;42.782;23.108;2022-10-31T12:59:46;6.72;;;3.13;;
62929;SDS011;49036;42.782;23.108;2022-10-31T13:05:10;6.57;;;2.83;;
62929;SDS011;49036;42.782;23.108;2022-10-31T13:07:46;9.00;;;3.08;;
62929;SDS011;49036;42.782;23.108;2022-10-31T13:12:41;10.65;;;3.20;;
62929;SDS011;49036;42.782;23.108;2022-10-31T13:15:26;8.48;;;2.92;;
62929;SDS011;49036;42.782;23.108;2022-10-31T13:17:54;10.57;;;3.45;;
62929;SDS011;49036;42.782;23.108;2022-10-31T13:23:32;4.28;;;2.88;;
62929;SDS011;49036;42.782;23.108;2022-10-31T13:26:01;5.00;;;2.80;;
62929;SDS011;49036;42.782;23.108;2022-10-31T13:31:28;8.95;;;2.88;;
62929;SDS011;49036;42.782;23.108;2022-10-31T13:34:36;12.60;;;5.82;;
62929;SDS011;49036;42.782;23.108;2022-10-31T13:36:51;5.85;;;2.65;;
62929;SDS011;49036;42.782;23.108;2022-10-31T13:45:52;8.98;;;3.38;;
62929;SDS011;49036;42.782;23.108;2022-10-31T13:50:05;8.40;;;3.17;;
62929;SDS011;49036;42.782;23.108;2022-10-31T13:52:44;8.98;;;3.30;;
62929;SDS011;49036;42.782;23.108;2022-10-31T14:04:38;9.98;;;3.60;;
62929;SDS011;49036;42.782;23.108;2022-10-31T14:08:47;8.30;;;3.25;;
62929;SDS011;49036;42.782;23.108;2022-10-31T14:11:23;7.55;;;3.05;;
62929;SDS011;49036;42.782;23.108;2022-10-31T14:13:52;5.43;;;2.70;;
62929;SDS011;49036;42.782;23.108;2022-10-31T14:16:24;11.10;;;3.20;;
62929;SDS011;49036;42.782;23.108;2022-10-31T14:19:14;8.82;;;3.10;;
62929;SDS011;49036;42.782;23.108;2022-10-31T14:30:07;12.73;;;3.15;;
62929;SDS011;49036;42.782;23.108;2022-10-31T14:32:39;9.10;;;2.75;;
62929;SDS011;49036;42.782;23.108;2022-10-31T14:50:53;11.13;;;3.40;;
62929;SDS011;49036;42.782;23.108;2022-10-31T14:53:34;9.57;;;3.45;;
62929;SDS011;49036;42.782;23.108;2022-10-31T14:56:05;10.70;;;3.28;;
62929;SDS011;49036;42.782;23.108;2022-10-31T14:58:37;18.17;;;4.18;;
62929;SDS011;49036;42.782;23.108;2022-10-31T15:01:04;15.73;;;4.22;;
62929;SDS011;49036;42.782;23.108;2022-10-31T15:03:38;8.27;;;3.90;;
62929;SDS011;49036;42.782;23.108;2022-10-31T15:06:14;12.15;;;3.75;;
62929;SDS011;49036;42.782;23.108;2022-10-31T15:08:45;8.27;;;3.33;;
62929;SDS011;49036;42.782;23.108;2022-10-31T15:11:22;17.70;;;4.20;;
62929;SDS011;49036;42.782;23.108;2022-10-31T15:16:21;11.80;;;3.70;;
62929;SDS011;49036;42.782;23.108;2022-10-31T15:18:50;10.73;;;4.25;;
62929;SDS011;49036;42.782;23.108;2022-10-31T15:21:18;18.70;;;4.25;;
62929;SDS011;49036;42.782;23.108;2022-10-31T15:23:45;16.90;;;5.32;;
62929;SDS011;49036;42.782;23.108;2022-10-31T15:26:16;22.42;;;5.40;;
62929;SDS011;49036;42.782;23.108;2022-10-31T15:28:43;13.75;;;5.95;;
62929;SDS011;49036;42.782;23.108;2022-10-31T15:31:13;25.67;;;6.30;;
62929;SDS011;49036;42.782;23.108;2022-10-31T15:33:42;20.35;;;6.70;;
62929;SDS011;49036;42.782;23.108;2022-10-31T15:36:20;16.40;;;5.95;;
62929;SDS011;49036;42.782;23.108;2022-10-31T15:38:48;18.60;;;5.68;;
62929;SDS011;49036;42.782;23.108;2022-10-31T15:41:35;13.95;;;5.78;;
62929;SDS011;49036;42.782;23.108;2022-10-31T15:44:36;13.75;;;5.38;;
62929;SDS011;49036;42.782;23.108;2022-10-31T15:47:12;12.73;;;5.75;;
62929;SDS011;49036;42.782;23.108;2022-10-31T15:50:03;12.68;;;6.55;;
62929;SDS011;49036;42.782;23.108;2022-10-31T15:55:02;15.48;;;6.25;;
62929;SDS011;49036;42.782;23.108;2022-10-31T15:57:43;10.50;;;5.32;;
62929;SDS011;49036;42.782;23.108;2022-10-31T16:03:05;14.93;;;5.38;;
62929;SDS011;49036;42.782;23.108;2022-10-31T16:06:02;8.70;;;5.20;;
62929;SDS011;49036;42.782;23.108;2022-10-31T16:10:55;10.85;;;6.05;;
62929;SDS011;49036;42.782;23.108;2022-10-31T16:13:26;14.77;;;5.70;;
62929;SDS011;49036;42.782;23.108;2022-10-31T16:15:57;14.15;;;6.40;;
62929;SDS011;49036;42.782;23.108;2022-10-31T16:20:52;14.23;;;6.60;;
62929;SDS011;49036;42.782;23.108;2022-10-31T16:23:20;18.40;;;7.10;;
62929;SDS011;49036;42.782;23.108;2022-10-31T16:25:47;13.32;;;6.32;;
62929;SDS011;49036;42.782;23.108;2022-10-31T16:28:15;14.43;;;7.22;;
62929;SDS011;49036;42.782;23.108;2022-10-31T16:30:44;15.13;;;6.45;;
62929;SDS011;49036;42.782;23.108;2022-10-31T16:35:50;12.63;;;6.80;;
62929;SDS011;49036;42.782;23.108;2022-10-31T16:38:17;15.32;;;6.50;;
62929;SDS011;49036;42.782;23.108;2022-10-31T16:40:42;13.35;;;7.18;;
62929;SDS011;49036;42.782;23.108;2022-10-31T16:43:10;16.25;;;6.78;;
62929;SDS011;49036;42.782;23.108;2022-10-31T16:45:42;10.10;;;6.15;;
62929;SDS011;49036;42.782;23.108;2022-10-31T16:48:13;13.82;;;6.80;;
62929;SDS011;49036;42.782;23.108;2022-10-31T16:50:40;14.00;;;6.00;;
62929;SDS011;49036;42.782;23.108;2022-10-31T16:53:09;9.32;;;5.88;;
62929;SDS011;49036;42.782;23.108;2022-10-31T16:55:55;10.10;;;6.40;;
62929;SDS011;49036;42.782;23.108;2022-10-31T16:58:27;15.35;;;6.28;;
62929;SDS011;49036;42.782;23.108;2022-10-31T17:00:55;15.70;;;6.18;;
62929;SDS011;49036;42.782;23.108;2022-10-31T17:03:21;9.75;;;5.80;;
62929;SDS011;49036;42.782;23.108;2022-10-31T17:05:47;12.25;;;5.97;;
62929;SDS011;49036;42.782;23.108;2022-10-31T17:08:13;8.30;;;5.30;;
62929;SDS011;49036;42.782;23.108;2022-10-31T17:10:38;11.63;;;5.38;;
62929;SDS011;49036;42.782;23.108;2022-10-31T17:13:06;10.85;;;5.75;;
62929;SDS011;49036;42.782;23.108;2022-10-31T17:15:40;11.25;;;5.10;;
62929;SDS011;49036;42.782;23.108;2022-10-31T17:18:11;11.55;;;5.40;;
62929;SDS011;49036;42.782;23.108;2022-10-31T17:20:37;13.18;;;5.47;;
62929;SDS011;49036;42.782;23.108;2022-10-31T17:23:03;11.95;;;6.28;;
62929;SDS011;49036;42.782;23.108;2022-10-31T17:25:29;11.00;;;5.97;;
62929;SDS011;49036;42.782;23.108;2022-10-31T17:27:58;12.68;;;6.82;;
62929;SDS011;49036;42.782;23.108;2022-10-31T17:30:23;15.38;;;5.78;;
62929;SDS011;49036;42.782;23.108;2022-10-31T17:32:49;8.73;;;5.18;;
62929;SDS011;49036;42.782;23.108;2022-10-31T17:35:16;15.43;;;5.43;;
62929;SDS011;49036;42.782;23.108;2022-10-31T17:37:43;9.25;;;6.60;;
62929;SDS011;49036;42.782;23.108;2022-10-31T17:40:10;10.77;;;6.00;;
62929;SDS011;49036;42.782;23.108;2022-10-31T17:42:37;11.60;;;5.50;;
62929;SDS011;49036;42.782;23.108;2022-10-31T17:45:04;9.70;;;5.60;;
62929;SDS011;49036;42.782;23.108;2022-10-31T17:47:30;10.07;;;5.32;;
62929;SDS011;49036;42.782;23.108;2022-10-31T17:49:56;7.38;;;5.22;;
62929;SDS011;49036;42.782;23.108;2022-10-31T17:52:22;9.02;;;5.07;;
62929;SDS011;49036;42.782;23.108;2022-10-31T17:54:47;7.97;;;5.63;;
62929;SDS011;49036;42.782;23.108;2022-10-31T17:57:13;12.48;;;5.60;;
62929;SDS011;49036;42.782;23.108;2022-10-31T17:59:39;10.02;;;6.18;;
62929;SDS011;49036;42.782;23.108;2022-10-31T18:02:05;13.73;;;6.07;;
62929;SDS011;49036;42.782;23.108;2022-10-31T18:04:35;11.43;;;6.25;;
62929;SDS011;49036;42.782;23.108;2022-10-31T18:07:01;17.73;;;6.47;;
62929;SDS011;49036;42.782;23.108;2022-10-31T18:09:27;10.23;;;5.93;;
62929;SDS011;49036;42.782;23.108;2022-10-31T18:11:52;12.77;;;6.00;;
62929;SDS011;49036;42.782;23.108;2022-10-31T18:14:18;10.70;;;5.28;;
62929;SDS011;49036;42.782;23.108;2022-10-31T18:16:43;11.32;;;5.93;;
62929;SDS011;49036;42.782;23.108;2022-10-31T18:19:10;8.63;;;5.47;;
62929;SDS011;49036;42.782;23.108;2022-10-31T18:21:37;14.10;;;6.55;;
62929;SDS011;49036;42.782;23.108;2022-10-31T18:24:02;10.35;;;6.10;;
62929;SDS011;49036;42.782;23.108;2022-10-31T18:26:28;12.63;;;5.80;;
62929;SDS011;49036;42.782;23.108;2022-10-31T18:28:54;9.02;;;6.05;;
62929;SDS011;49036;42.782;23.108;2022-10-31T18:31:19;13.20;;;5.97;;
62929;SDS011;49036;42.782;23.108;2022-10-31T18:33:45;10.30;;;5.75;;
62929;SDS011;49036;42.782;23.108;2022-10-31T18:36:11;13.07;;;6.32;;
62929;SDS011;49036;42.782;23.108;2022-10-31T18:38:40;11.38;;;6.03;;
62929;SDS011;49036;42.782;23.108;2022-10-31T18:41:08;8.90;;;5.85;;
62929;SDS011;49036;42.782;23.108;2022-10-31T18:43:34;10.27;;;5.50;;
62929;SDS011;49036;42.782;23.108;2022-10-31T18:46:04;16.35;;;6.53;;
62929;SDS011;49036;42.782;23.108;2022-10-31T18:48:31;8.45;;;5.47;;
62929;SDS011;49036;42.782;23.108;2022-10-31T18:51:00;10.63;;;6.10;;
62929;SDS011;49036;42.782;23.108;2022-10-31T18:53:30;8.20;;;4.95;;
62929;SDS011;49036;42.782;23.108;2022-10-31T18:55:56;11.48;;;5.35;;
62929;SDS011;49036;42.782;23.108;2022-10-31T18:58:23;10.13;;;5.32;;
62929;SDS011;49036;42.782;23.108;2022-10-31T19:00:49;11.45;;;5.65;;
62929;SDS011;49036;42.782;23.108;2022-10-31T19:03:15;15.15;;;6.45;;